createdAt,value
2022-12-05T00:02:03.749Z,93.79
2022-12-05T00:04:31.792Z,93.55
2022-12-05T00:06:59.691Z,93.40
2022-12-05T00:09:27.544Z,93.85
2022-12-05T00:11:57.673Z,93.50
2022-12-05T00:14:25.792Z,93.42
2022-12-05T00:17:07.721Z,93.56
2022-12-05T00:19:35.562Z,93.80
2022-12-05T00:22:03.367Z,94.07
2022-12-05T00:24:33.582Z,93.94
2022-12-05T00:27:04.727Z,93.83
2022-12-05T00:29:32.611Z,93.69
2022-12-05T00:32:00.667Z,94.86
2022-12-05T00:34:30.045Z,94.08
2022-12-05T00:36:58.213Z,93.56
2022-12-05T00:39:28.641Z,94.48
2022-12-05T00:41:56.518Z,93.80
2022-12-05T00:44:27.060Z,94.32
2022-12-05T00:46:55.008Z,92.92
2022-12-05T00:49:22.993Z,93.16
2022-12-05T00:51:55.609Z,92.74
2022-12-05T00:54:26.464Z,92.94
2022-12-05T00:56:56.516Z,93.79
2022-12-05T00:59:41.575Z,93.73
2022-12-05T01:02:16.570Z,92.58
2022-12-05T01:11:02.066Z,93.12
2022-12-05T01:13:40.682Z,92.99
2022-12-05T01:16:22.657Z,92.70
2022-12-05T01:19:23.802Z,93.57
2022-12-05T01:25:24.976Z,91.92
2022-12-05T01:27:57.046Z,92.06
2022-12-05T01:30:43.923Z,92.85
2022-12-05T01:33:17.932Z,92.28
2022-12-05T01:35:51.179Z,92.23
2022-12-05T01:38:48.667Z,92.74
2022-12-05T01:44:55.399Z,92.28
2022-12-05T01:47:40.897Z,91.68
2022-12-05T01:53:18.417Z,91.60
2022-12-05T01:55:54.514Z,91.96
2022-12-05T01:58:53.891Z,92.02
2022-12-05T02:01:26.505Z,91.86
2022-12-05T02:04:01.239Z,92.15
2022-12-05T02:06:43.574Z,92.16
2022-12-05T02:09:18.494Z,92.39
2022-12-05T02:11:56.771Z,92.07
2022-12-05T02:17:47.925Z,92.35
2022-12-05T02:20:40.223Z,91.96
2022-12-05T02:23:54.772Z,92.25
2022-12-05T02:26:58.068Z,92.27
2022-12-05T02:29:59.525Z,92.89
2022-12-05T02:32:48.793Z,92.64
2022-12-05T02:35:30.350Z,92.81
2022-12-05T02:38:17.500Z,92.77
2022-12-05T02:41:01.353Z,91.89
2022-12-05T02:43:34.129Z,91.38
2022-12-05T02:46:12.847Z,91.38
2022-12-05T02:48:51.293Z,91.77
2022-12-05T02:51:39.100Z,91.89
2022-12-05T02:54:18.547Z,92.01
2022-12-05T02:56:51.275Z,92.76
2022-12-05T02:59:26.616Z,91.35
2022-12-05T03:01:57.272Z,91.65
2022-12-05T03:04:28.564Z,91.33
2022-12-05T03:09:52.415Z,91.00
2022-12-05T03:12:29.384Z,90.79
2022-12-05T03:15:16.783Z,91.20
2022-12-05T03:17:58.332Z,90.43
2022-12-05T03:20:37.639Z,91.24
2022-12-05T03:23:14.480Z,91.27
2022-12-05T03:25:56.733Z,90.94
2022-12-05T03:28:50.812Z,91.31
2022-12-05T03:31:34.897Z,91.18
2022-12-05T03:34:19.355Z,91.98
2022-12-05T03:37:07.732Z,91.37
2022-12-05T03:40:03.906Z,92.07
2022-12-05T03:42:50.379Z,91.88
2022-12-05T03:45:31.989Z,91.95
2022-12-05T03:48:12.963Z,91.84
2022-12-05T03:50:50.397Z,92.08
2022-12-05T03:53:26.803Z,91.57
2022-12-05T03:56:12.121Z,91.96
2022-12-05T03:58:59.732Z,91.90
2022-12-05T04:01:43.695Z,91.84
2022-12-05T04:04:26.749Z,92.53
2022-12-05T04:10:24.536Z,91.69
2022-12-05T04:12:57.073Z,91.07
2022-12-05T04:15:50.437Z,91.39
2022-12-05T04:18:24.511Z,92.12
2022-12-05T04:21:17.565Z,91.77
2022-12-05T04:27:45.772Z,92.16
2022-12-05T04:34:34.233Z,92.33
2022-12-05T04:41:49.048Z,92.23
2022-12-05T04:44:50.622Z,92.26
2022-12-05T04:51:35.558Z,92.22
2022-12-05T04:54:09.466Z,92.72
2022-12-05T04:56:39.494Z,92.66
2022-12-05T04:59:07.344Z,92.40
2022-12-05T05:01:39.988Z,92.31
2022-12-05T05:04:11.119Z,92.88
2022-12-05T05:06:39.409Z,92.70
2022-12-05T05:09:07.426Z,93.03
2022-12-05T05:11:36.506Z,92.90
2022-12-05T05:14:06.637Z,92.60
2022-12-05T05:16:36.229Z,92.27
2022-12-05T05:19:05.507Z,92.70
2022-12-05T05:21:36.081Z,92.67
2022-12-05T05:24:04.818Z,92.63
2022-12-05T05:26:35.417Z,92.43
2022-12-05T05:29:05.126Z,92.60
2022-12-05T05:31:33.049Z,93.04
2022-12-05T05:34:07.480Z,92.87
2022-12-05T05:36:37.298Z,92.14
2022-12-05T05:39:06.769Z,92.01
2022-12-05T05:41:37.069Z,92.07
2022-12-05T05:44:06.605Z,92.02
2022-12-05T05:46:36.271Z,92.01
2022-12-05T05:49:05.133Z,92.24
2022-12-05T05:51:32.932Z,91.88
2022-12-05T05:54:01.111Z,91.68
2022-12-05T05:56:30.035Z,91.51
2022-12-05T05:58:59.777Z,91.80
2022-12-05T06:01:30.006Z,92.01
2022-12-05T06:03:58.760Z,91.94
2022-12-05T06:06:26.824Z,91.87
2022-12-05T06:08:55.663Z,91.52
2022-12-05T06:11:26.700Z,90.92
2022-12-05T06:13:55.877Z,91.22
2022-12-05T06:16:24.099Z,91.66
2022-12-05T06:18:53.729Z,91.25
2022-12-05T06:21:21.863Z,91.29
2022-12-05T06:23:51.117Z,91.21
2022-12-05T06:26:21.746Z,91.77
2022-12-05T06:28:49.847Z,91.14
2022-12-05T06:31:19.932Z,91.11
2022-12-05T06:33:48.915Z,91.16
2022-12-05T06:36:20.807Z,89.98
2022-12-05T06:38:49.472Z,90.89
2022-12-05T06:41:19.802Z,91.82
2022-12-05T06:43:48.496Z,90.32
2022-12-05T06:46:17.179Z,90.76
2022-12-05T06:48:45.425Z,90.49
2022-12-05T06:51:15.172Z,90.94
2022-12-05T06:53:44.600Z,91.41
2022-12-05T06:56:15.509Z,90.48
2022-12-05T06:58:44.625Z,89.51
2022-12-05T07:01:31.721Z,90.27
2022-12-05T07:04:00.149Z,90.02
2022-12-05T07:06:28.651Z,90.46
2022-12-05T07:08:58.118Z,89.16
2022-12-05T07:11:26.160Z,89.91
2022-12-05T07:13:54.081Z,89.81
2022-12-05T07:16:22.003Z,89.76
2022-12-05T07:18:50.136Z,89.25
2022-12-05T07:21:18.700Z,89.40
2022-12-05T07:23:48.062Z,89.60
2022-12-05T07:26:20.631Z,89.48
2022-12-05T07:28:49.280Z,89.43
2022-12-05T07:31:20.495Z,89.71
2022-12-05T07:33:48.690Z,89.86
2022-12-05T07:36:18.616Z,88.99
2022-12-05T07:38:53.475Z,89.91
2022-12-05T07:41:25.414Z,89.14
2022-12-05T07:43:54.291Z,90.38
2022-12-05T07:46:22.556Z,89.14
2022-12-05T07:48:51.057Z,89.75
2022-12-05T07:51:19.947Z,90.07
2022-12-05T07:53:48.638Z,89.88
2022-12-05T07:56:18.722Z,90.53
2022-12-05T07:58:50.503Z,90.88
2022-12-05T08:01:20.883Z,89.91
2022-12-05T08:03:49.574Z,90.21
2022-12-05T08:06:21.348Z,90.04
2022-12-05T08:08:49.993Z,89.69
2022-12-05T08:11:19.850Z,89.83
2022-12-05T08:13:49.970Z,89.13
2022-12-05T08:16:19.370Z,89.37
2022-12-05T08:18:47.748Z,88.41
2022-12-05T08:21:17.460Z,88.75
2022-12-05T08:23:46.240Z,88.03
2022-12-05T08:26:16.327Z,86.74
2022-12-05T08:28:45.251Z,87.38
2022-12-05T08:31:16.981Z,87.98
2022-12-05T08:33:45.855Z,87.42
2022-12-05T08:36:16.348Z,86.79
2022-12-05T08:38:45.330Z,88.10
2022-12-05T08:41:15.813Z,86.94
2022-12-05T08:43:44.748Z,88.23
2022-12-05T08:46:14.061Z,88.25
2022-12-05T08:48:42.074Z,87.51
2022-12-05T08:51:12.879Z,88.75
2022-12-05T08:53:44.560Z,87.38
2022-12-05T08:56:13.609Z,87.32
2022-12-05T08:58:42.009Z,87.03
2022-12-05T09:01:13.088Z,88.11
2022-12-05T09:03:47.842Z,88.55
2022-12-05T09:06:21.474Z,87.48
2022-12-05T09:08:50.652Z,88.03
2022-12-05T09:11:21.096Z,87.32
2022-12-05T09:13:49.357Z,87.85
2022-12-05T09:16:19.647Z,87.49
2022-12-05T09:18:51.494Z,87.69
2022-12-05T09:21:21.835Z,87.40
2022-12-05T09:23:51.417Z,87.32
2022-12-05T09:26:21.322Z,87.54
2022-12-05T09:28:49.702Z,86.52
2022-12-05T09:31:19.768Z,87.69
2022-12-05T09:33:50.545Z,88.00
2022-12-05T09:36:21.073Z,88.13
2022-12-05T09:38:49.405Z,88.52
2022-12-05T09:42:02.691Z,88.03
2022-12-05T09:44:43.019Z,89.36
2022-12-05T09:47:24.703Z,87.26
2022-12-05T09:50:00.217Z,87.13
2022-12-05T09:52:30.433Z,87.30
2022-12-05T09:55:04.127Z,87.33
2022-12-05T09:57:37.841Z,87.12
2022-12-05T10:00:08.125Z,87.69
2022-12-05T10:02:48.812Z,86.76
2022-12-05T10:05:24.158Z,86.03
2022-12-05T10:08:00.364Z,86.05
2022-12-05T10:10:36.001Z,86.92
2022-12-05T10:13:21.783Z,87.56
2022-12-05T10:15:57.257Z,87.93
2022-12-05T10:18:35.450Z,87.66
2022-12-05T10:21:11.550Z,89.18
2022-12-05T10:23:57.440Z,89.95
2022-12-05T10:26:30.094Z,87.13
2022-12-05T10:29:03.753Z,87.93
2022-12-05T10:31:36.256Z,86.73
2022-12-05T10:34:07.473Z,86.85
2022-12-05T10:36:36.845Z,87.80
2022-12-05T10:39:11.263Z,86.82
2022-12-05T10:41:39.794Z,88.13
2022-12-05T10:44:07.977Z,88.64
2022-12-05T10:46:36.777Z,88.56
2022-12-05T10:49:12.294Z,88.54
2022-12-05T10:51:42.441Z,88.73
2022-12-05T10:54:18.343Z,88.15
2022-12-05T10:56:47.862Z,88.73
2022-12-05T10:59:18.561Z,88.41
2022-12-05T11:01:51.510Z,89.46
2022-12-05T11:04:24.277Z,89.30
2022-12-05T11:06:57.521Z,89.34
2022-12-05T11:09:27.424Z,89.83
2022-12-05T11:12:02.872Z,89.91
2022-12-05T11:14:31.310Z,88.95
2022-12-05T11:17:02.039Z,88.01
2022-12-05T11:19:33.072Z,88.27
2022-12-05T11:22:03.453Z,88.39
2022-12-05T11:24:33.113Z,88.04
2022-12-05T11:27:20.911Z,88.38
2022-12-05T11:29:56.383Z,87.72
2022-12-05T11:32:27.400Z,89.12
2022-12-05T11:35:04.231Z,87.92
2022-12-05T11:37:39.242Z,87.25
2022-12-05T11:40:16.292Z,87.29
2022-12-05T11:43:01.549Z,87.25
2022-12-05T11:45:42.620Z,89.74
2022-12-05T11:48:25.061Z,88.31
2022-12-05T11:51:06.683Z,89.64
2022-12-05T11:54:05.401Z,89.20
2022-12-05T11:56:39.077Z,88.68
2022-12-05T11:59:28.207Z,89.49
2022-12-05T12:02:06.755Z,88.92
2022-12-05T12:04:55.585Z,89.73
2022-12-05T12:07:37.442Z,89.04
2022-12-05T12:10:23.882Z,89.42
2022-12-05T12:13:10.486Z,89.25
2022-12-05T12:16:08.774Z,88.83
2022-12-05T12:19:01.031Z,89.44
2022-12-05T12:21:48.036Z,88.74
2022-12-05T12:24:27.828Z,89.52
2022-12-05T12:27:06.192Z,88.75
2022-12-05T12:29:48.991Z,88.71
2022-12-05T12:32:28.026Z,89.41
2022-12-05T12:35:15.249Z,89.86
2022-12-05T12:37:53.006Z,89.49
2022-12-05T12:40:23.924Z,89.85
2022-12-05T12:43:21.076Z,89.83
2022-12-05T12:46:14.749Z,89.17
2022-12-05T12:49:01.303Z,90.28
2022-12-05T12:51:31.154Z,90.08
2022-12-05T12:54:55.162Z,90.00
2022-12-05T12:57:28.064Z,89.20
2022-12-05T13:00:05.695Z,89.14
2022-12-05T13:02:41.440Z,89.03
2022-12-05T13:05:22.439Z,88.25
2022-12-05T13:07:55.127Z,88.86
2022-12-05T13:10:29.722Z,88.00
2022-12-05T13:13:03.992Z,88.72
2022-12-05T13:15:58.473Z,87.81
2022-12-05T13:18:27.780Z,86.92
2022-12-05T13:20:58.147Z,87.46
2022-12-05T13:23:29.948Z,87.19
2022-12-05T13:29:25.540Z,87.76
2022-12-05T13:36:39.098Z,87.38
2022-12-05T13:39:41.509Z,88.63
2022-12-05T13:42:41.866Z,87.94
2022-12-05T13:45:25.195Z,87.30
2022-12-05T13:48:32.241Z,87.21
2022-12-05T13:54:22.516Z,86.53
2022-12-05T13:57:00.821Z,88.09
2022-12-05T14:00:07.055Z,87.96
2022-12-05T14:02:54.190Z,88.74
2022-12-05T14:05:50.886Z,88.75
2022-12-05T14:08:57.921Z,88.75
2022-12-05T14:11:29.948Z,89.66
2022-12-05T14:14:04.328Z,89.00
2022-12-05T14:16:45.836Z,89.78
2022-12-05T14:19:44.097Z,89.73
2022-12-05T14:22:39.316Z,90.27
2022-12-05T14:25:14.093Z,90.05
2022-12-05T14:27:53.274Z,89.75
2022-12-05T14:30:26.624Z,90.59
2022-12-05T14:32:55.724Z,89.22
2022-12-05T14:35:30.264Z,89.97
2022-12-05T14:38:02.325Z,90.94
2022-12-05T14:40:34.072Z,90.76
2022-12-05T14:43:06.865Z,89.94
2022-12-05T14:45:38.943Z,89.97
2022-12-05T14:48:23.154Z,89.97
2022-12-05T14:50:52.706Z,90.91
2022-12-05T14:53:32.591Z,90.49
2022-12-05T14:56:08.851Z,90.56
2022-12-05T14:58:44.504Z,90.79
2022-12-05T15:01:19.219Z,90.64
2022-12-05T15:04:04.251Z,90.88
2022-12-05T15:06:35.804Z,91.17
2022-12-05T15:09:36.847Z,91.62
2022-12-05T15:12:11.534Z,91.11
2022-12-05T15:14:47.875Z,91.82
2022-12-05T15:17:28.716Z,91.40
2022-12-05T15:20:10.020Z,91.38
2022-12-05T15:22:48.626Z,90.55
2022-12-05T15:25:26.950Z,90.77
2022-12-05T15:28:04.021Z,91.34
2022-12-05T15:34:20.046Z,91.85
2022-12-05T15:37:17.779Z,91.73
2022-12-05T15:40:28.860Z,91.69
2022-12-05T16:37:51.027Z,91.85
2022-12-05T20:13:38.496Z,84.55
2022-12-05T20:16:12.696Z,85.32
2022-12-05T20:18:42.539Z,85.41
2022-12-05T20:21:12.280Z,85.34
2022-12-05T20:23:40.597Z,84.51
2022-12-05T20:26:10.498Z,84.58
2022-12-05T20:28:41.722Z,84.01
2022-12-05T20:31:11.519Z,84.97
2022-12-05T20:33:40.242Z,84.48
2022-12-05T20:36:10.677Z,84.91
2022-12-05T20:38:38.915Z,85.84
2022-12-05T20:41:09.185Z,85.07
2022-12-05T20:43:38.187Z,85.48
2022-12-05T20:46:09.802Z,85.48
2022-12-05T20:48:38.222Z,85.67
2022-12-05T20:51:07.346Z,86.29
2022-12-05T20:53:36.873Z,85.92
2022-12-05T20:56:06.126Z,86.29
2022-12-05T20:58:34.274Z,86.93
2022-12-05T21:01:04.001Z,86.79
2022-12-05T21:03:33.580Z,87.38
2022-12-05T21:06:07.010Z,86.86
2022-12-05T21:08:35.148Z,87.06
2022-12-05T21:11:03.189Z,86.47
2022-12-05T21:13:31.615Z,86.42
2022-12-05T21:16:03.405Z,85.84
2022-12-05T21:18:32.899Z,86.63
2022-12-05T21:21:03.093Z,86.01
2022-12-05T21:23:31.349Z,86.00
2022-12-05T21:26:03.731Z,86.23
2022-12-05T21:28:32.246Z,86.60
2022-12-05T21:31:06.592Z,86.70
2022-12-05T21:33:36.115Z,86.16
2022-12-05T21:36:04.644Z,87.27
2022-12-05T21:38:32.975Z,86.35
2022-12-05T21:41:00.874Z,85.74
2022-12-05T21:43:34.799Z,85.78
2022-12-05T21:46:04.727Z,85.53
2022-12-05T21:48:34.237Z,85.91
2022-12-05T21:51:06.809Z,84.90
2022-12-05T21:53:37.643Z,85.90
2022-12-05T21:56:08.462Z,86.88
2022-12-05T21:58:41.858Z,85.60
2022-12-05T22:01:11.511Z,85.96
2022-12-05T22:03:39.814Z,86.45
2022-12-05T22:06:11.520Z,86.25
2022-12-05T22:08:40.057Z,87.17
2022-12-05T22:11:10.476Z,86.01
2022-12-05T22:13:38.845Z,86.07
2022-12-05T22:16:08.784Z,86.32
2022-12-05T22:18:39.708Z,85.63
2022-12-05T22:21:12.381Z,85.88
2022-12-05T22:23:40.962Z,86.09
2022-12-05T22:26:10.634Z,86.56
2022-12-05T22:28:38.990Z,86.49
2022-12-05T22:31:09.121Z,87.23
2022-12-05T22:33:37.864Z,86.20
2022-12-05T22:36:08.025Z,87.06
2022-12-05T22:38:40.247Z,87.46
2022-12-05T22:41:10.049Z,87.75
2022-12-05T22:43:39.857Z,87.29
2022-12-05T22:46:09.655Z,87.65
2022-12-05T22:48:37.683Z,86.88
2022-12-05T22:51:07.390Z,86.74
2022-12-05T22:53:37.193Z,86.78
2022-12-05T22:56:06.922Z,87.68
2022-12-05T22:58:35.588Z,87.80
2022-12-05T23:01:14.180Z,88.97
2022-12-05T23:03:46.466Z,87.79
2022-12-05T23:06:15.940Z,87.03
2022-12-05T23:08:47.738Z,87.61
2022-12-05T23:11:17.257Z,86.91
2022-12-05T23:13:45.625Z,88.30
2022-12-05T23:16:16.067Z,87.93
2022-12-05T23:18:48.029Z,88.61
2022-12-05T23:21:18.043Z,89.04
2022-12-05T23:23:48.357Z,88.07
2022-12-05T23:26:17.247Z,89.29
2022-12-05T23:28:45.298Z,89.10
2022-12-05T23:31:14.020Z,89.05
2022-12-05T23:33:42.703Z,89.09
2022-12-05T23:36:12.565Z,88.45
2022-12-05T23:38:43.633Z,88.52
2022-12-05T23:41:17.042Z,88.65
2022-12-05T23:43:49.042Z,88.73
2022-12-05T23:46:19.489Z,89.33
2022-12-05T23:48:48.506Z,89.30
2022-12-05T23:51:19.208Z,88.68
2022-12-05T23:53:49.167Z,88.90
2022-12-05T23:56:20.806Z,89.68
2022-12-05T23:58:48.883Z,88.95
